Time;durP1;ratioP1;P1;durP2;ratioP2;P2;SDS_P1;SDS_P2;PMS_P1;PMS_P2;Temp;Humidity;BMP_temperature;BMP_pressure;BME280_temperature;BME280_humidity;BME280_pressure;Samples;Min_cycle;Max_cycle;Signal;HPM_P1;HPM_P2
2021/06/23 00:01:51;;;;;;;2.73;2.17;;;20.00;99.90;;;;;;5033544;28;20919;-71
2021/06/23 00:04:18;;;;;;;2.37;2.10;;;19.90;99.90;;;;;;5033708;28;20544;-72
2021/06/23 00:06:46;;;;;;;3.17;2.93;;;19.90;99.90;;;;;;5033608;28;20539;-72
2021/06/23 00:09:13;;;;;;;2.60;2.37;;;19.90;99.90;;;;;;5033313;28;21003;-72
2021/06/23 00:11:42;;;;;;;3.00;2.70;;;19.90;99.90;;;;;;5033335;28;20454;-73
2021/06/23 00:14:10;;;;;;;3.20;2.90;;;20.00;99.90;;;;;;5033839;28;20452;-72
2021/06/23 00:16:37;;;;;;;3.47;3.13;;;19.90;99.90;;;;;;5033804;28;20473;-73
2021/06/23 00:19:04;;;;;;;3.30;3.00;;;20.00;99.90;;;;;;5033311;28;21045;-73
2021/06/23 00:21:31;;;;;;;3.03;2.73;;;20.10;99.90;;;;;;5032947;28;21042;-72
2021/06/23 00:23:59;;;;;;;4.90;3.13;;;20.00;99.90;;;;;;5032973;28;20479;-73
2021/06/23 00:26:26;;;;;;;3.90;3.43;;;20.00;99.90;;;;;;5032813;28;20505;-73
2021/06/23 00:28:53;;;;;;;4.00;3.20;;;20.00;99.90;;;;;;5033092;28;20457;-72
2021/06/23 00:31:20;;;;;;;3.33;2.93;;;20.00;99.90;;;;;;5032701;28;20456;-72
2021/06/23 00:33:48;;;;;;;4.10;2.90;;;20.00;99.90;;;;;;5032958;28;20483;-72
2021/06/23 00:36:15;;;;;;;3.80;3.07;;;20.00;99.90;;;;;;5033043;28;20546;-72
2021/06/23 00:38:41;;;;;;;4.77;3.20;;;20.00;99.90;;;;;;5032766;28;20540;-72
2021/06/23 00:41:16;;;;;;;3.37;2.87;;;19.90;99.90;;;;;;5032492;28;20551;-72
2021/06/23 00:43:43;;;;;;;4.40;3.33;;;19.90;99.90;;;;;;5032766;28;20456;-73
2021/06/23 00:46:09;;;;;;;3.37;3.07;;;19.80;99.90;;;;;;5032290;28;20471;-77
2021/06/23 00:48:36;;;;;;;2.97;2.73;;;19.70;99.90;;;;;;5032487;28;20986;-75
2021/06/23 00:51:04;;;;;;;4.20;3.30;;;19.70;99.90;;;;;;5032686;28;20483;-75
2021/06/23 00:53:32;;;;;;;5.03;3.50;;;19.80;99.90;;;;;;5032252;28;20792;-73
2021/06/23 00:55:59;;;;;;;3.53;2.80;;;19.80;99.90;;;;;;5032647;28;20563;-74
2021/06/23 00:58:28;;;;;;;3.33;2.77;;;19.80;99.90;;;;;;5032629;28;20447;-76
2021/06/23 01:00:57;;;;;;;3.43;3.13;;;19.80;99.90;;;;;;5032269;28;20446;-76
2021/06/23 01:03:25;;;;;;;4.00;3.07;;;19.80;99.90;;;;;;5032513;28;20452;-75
2021/06/23 01:05:53;;;;;;;4.00;3.47;;;19.80;99.90;;;;;;5031915;28;20963;-74
2021/06/23 01:08:20;;;;;;;8.20;2.70;;;19.80;99.90;;;;;;5032533;28;20479;-75
2021/06/23 01:10:47;;;;;;;4.40;3.17;;;19.80;99.90;;;;;;5032203;28;20489;-76
2021/06/23 01:13:36;;;;;;;3.13;2.77;;;19.80;99.90;;;;;;5032418;28;20448;-75
2021/06/23 01:16:06;;;;;;;3.80;3.33;;;19.90;99.90;;;;;;5032090;28;21190;-76
2021/06/23 01:18:37;;;;;;;4.47;3.93;;;19.80;99.90;;;;;;5032154;28;20445;-76
2021/06/23 01:21:05;;;;;;;3.23;2.93;;;19.80;99.90;;;;;;5032213;28;20435;-76
2021/06/23 01:23:33;;;;;;;4.67;3.10;;;19.80;99.90;;;;;;5032294;28;20458;-75
2021/06/23 01:26:00;;;;;;;3.70;2.80;;;19.80;99.90;;;;;;5031843;28;20551;-76
2021/06/23 01:28:27;;;;;;;3.77;3.30;;;19.80;99.90;;;;;;5032009;28;20531;-74
2021/06/23 01:30:56;;;;;;;3.73;3.43;;;19.80;99.90;;;;;;5031605;28;20512;-76
2021/06/23 01:33:23;;;;;;;4.93;4.03;;;19.80;99.90;;;;;;5034144;28;20515;-76
2021/06/23 01:35:49;;;;;;;3.23;2.93;;;19.80;99.90;;;;;;5034811;28;20498;-76
2021/06/23 01:38:16;;;;;;;3.43;3.03;;;19.70;99.90;;;;;;5035130;28;20539;-77
2021/06/23 01:40:45;;;;;;;4.53;3.47;;;19.70;99.90;;;;;;5034600;28;20534;-76
2021/06/23 01:43:12;;;;;;;4.23;3.27;;;19.60;99.90;;;;;;5035492;28;20538;-76
2021/06/23 01:45:40;;;;;;;3.90;3.20;;;19.60;99.90;;;;;;5035451;28;21053;-76
2021/06/23 01:48:08;;;;;;;2.83;2.53;;;19.60;99.90;;;;;;5035449;28;20449;-76
2021/06/23 01:50:35;;;;;;;3.53;3.23;;;19.50;99.90;;;;;;5034639;28;21030;-76
2021/06/23 01:53:02;;;;;;;3.20;2.60;;;19.50;99.90;;;;;;5034997;28;20443;-76
2021/06/23 01:55:29;;;;;;;4.43;3.13;;;19.40;99.90;;;;;;5034534;28;20467;-76
2021/06/23 01:58:02;;;;;;;3.37;3.00;;;19.30;99.90;;;;;;5034671;28;20262;-76
2021/06/23 02:00:41;;;;;;;2.92;2.67;;;19.30;99.90;;;;;;5034422;28;20468;-75
2021/06/23 02:03:16;;;;;;;3.50;2.70;;;19.30;99.90;;;;;;5035869;28;20272;-76
2021/06/23 02:06:04;;;;;;;2.83;2.57;;;19.30;99.90;;;;;;5035218;28;20465;-76
2021/06/23 02:08:46;;;;;;;2.43;2.30;;;19.20;99.90;;;;;;5035989;28;20589;-76
2021/06/23 02:11:36;;;;;;;3.95;2.75;;;19.20;99.90;;;;;;5034575;28;20489;-75
2021/06/23 02:14:34;;;;;;;2.35;2.15;;;19.10;99.90;;;;;;5035890;28;20291;-76
2021/06/23 02:17:03;;;;;;;2.50;2.30;;;19.20;99.90;;;;;;5037321;28;20208;-76
2021/06/23 02:19:31;;;;;;;3.05;2.53;;;19.10;99.90;;;;;;5037825;28;20913;-76
2021/06/23 02:21:59;;;;;;;4.13;3.20;;;19.00;99.90;;;;;;5037990;28;20220;-75
2021/06/23 02:24:28;;;;;;;2.90;2.53;;;19.00;99.90;;;;;;5039329;28;20249;-76
2021/06/23 02:26:56;;;;;;;3.65;2.95;;;19.10;99.90;;;;;;5040028;28;20551;-75
2021/06/23 02:29:26;;;;;;;2.90;2.60;;;19.00;99.90;;;;;;5039545;28;20204;-76
2021/06/23 02:31:55;;;;;;;2.73;2.53;;;19.10;99.90;;;;;;5038980;28;20215;-76
2021/06/23 02:34:24;;;;;;;3.47;2.47;;;19.10;99.90;;;;;;5038818;28;20438;-76
2021/06/23 02:36:51;;;;;;;2.72;2.50;;;19.10;99.90;;;;;;5039771;28;21005;-76
2021/06/23 02:39:18;;;;;;;3.15;2.50;;;19.00;99.90;;;;;;5039918;28;20300;-76
2021/06/23 02:41:45;;;;;;;2.42;2.22;;;19.00;99.90;;;;;;5038830;28;20766;-75
2021/06/23 02:44:12;;;;;;;2.63;2.33;;;19.00;99.90;;;;;;5039052;28;20290;-76
2021/06/23 02:46:41;;;;;;;2.70;2.35;;;18.90;99.90;;;;;;5038490;28;20230;-76
2021/06/23 02:49:09;;;;;;;2.90;2.45;;;18.90;99.90;;;;;;5039683;28;20523;-76
2021/06/23 02:51:40;;;;;;;2.85;2.50;;;18.90;99.90;;;;;;5038840;28;20311;-75
2021/06/23 02:54:07;;;;;;;2.27;1.90;;;18.80;99.90;;;;;;5037925;28;20239;-76
2021/06/23 02:56:35;;;;;;;3.13;2.47;;;18.80;99.90;;;;;;5037792;28;20458;-76
2021/06/23 02:59:03;;;;;;;2.65;2.20;;;18.80;99.90;;;;;;5038711;28;20212;-76
2021/06/23 03:01:30;;;;;;;3.22;2.40;;;18.80;99.90;;;;;;5038747;28;20629;-75
2021/06/23 03:03:59;;;;;;;2.90;2.40;;;18.70;99.90;;;;;;5039332;28;20299;-75
2021/06/23 03:06:26;;;;;;;2.42;2.22;;;18.70;99.90;;;;;;5039027;28;20291;-75
2021/06/23 03:08:53;;;;;;;2.63;2.15;;;18.70;99.90;;;;;;5039503;28;20200;-76
2021/06/23 03:11:20;;;;;;;2.55;2.05;;;18.70;99.90;;;;;;5036795;28;20311;-75
2021/06/23 03:13:47;;;;;;;3.38;2.22;;;18.60;99.90;;;;;;5036970;28;20211;-75
2021/06/23 03:16:14;;;;;;;1.92;1.80;;;18.70;99.90;;;;;;5037317;28;20262;-75
2021/06/23 03:18:40;;;;;;;2.30;2.10;;;18.60;99.90;;;;;;5037425;28;20582;-75
2021/06/23 03:21:10;;;;;;;2.00;1.80;;;18.60;99.90;;;;;;5035665;28;20676;-75
2021/06/23 03:23:37;;;;;;;2.22;1.70;;;18.60;99.90;;;;;;5035845;28;20200;-75
2021/06/23 03:26:04;;;;;;;2.53;2.33;;;18.60;99.90;;;;;;5035739;28;20716;-75
2021/06/23 03:28:31;;;;;;;2.70;2.33;;;18.60;99.90;;;;;;5035779;28;20299;-75
2021/06/23 03:30:58;;;;;;;3.33;2.25;;;18.60;99.90;;;;;;5035280;28;20281;-75
2021/06/23 03:33:24;;;;;;;2.15;1.95;;;18.60;99.90;;;;;;5037044;28;20223;-75
2021/06/23 03:35:51;;;;;;;1.80;1.70;;;18.60;99.90;;;;;;5038482;28;20314;-75
2021/06/23 03:38:20;;;;;;;2.25;1.63;;;18.50;99.90;;;;;;5036786;28;20231;-76
2021/06/23 03:40:46;;;;;;;2.85;2.40;;;18.60;99.90;;;;;;5037853;28;20291;-75
2021/06/23 03:43:13;;;;;;;1.98;1.80;;;18.70;99.90;;;;;;5037499;28;20587;-75
2021/06/23 03:45:40;;;;;;;1.80;1.63;;;18.70;99.90;;;;;;5036778;28;20239;-75
2021/06/23 03:48:08;;;;;;;2.40;1.98;;;18.80;99.90;;;;;;5037127;28;20207;-75
2021/06/23 03:50:35;;;;;;;2.72;2.30;;;18.90;99.90;;;;;;5037070;28;20242;-75
2021/06/23 03:53:02;;;;;;;2.13;1.95;;;18.90;99.90;;;;;;5036712;28;20204;-76
2021/06/23 03:55:30;;;;;;;2.45;2.00;;;18.90;99.90;;;;;;5037275;28;20597;-76
2021/06/23 03:57:57;;;;;;;2.35;2.05;;;18.90;99.90;;;;;;5037896;28;20658;-76
2021/06/23 04:00:27;;;;;;;2.80;2.60;;;18.90;99.90;;;;;;5035668;28;20250;-75
2021/06/23 04:02:54;;;;;;;2.20;2.05;;;18.80;99.90;;;;;;5036017;28;20610;-76
2021/06/23 04:05:22;;;;;;;4.10;2.50;;;18.80;99.90;;;;;;5035528;28;20359;-75
2021/06/23 04:07:49;;;;;;;2.47;2.22;;;18.80;99.90;;;;;;5035405;28;20211;-75
2021/06/23 04:10:16;;;;;;;2.55;2.35;;;18.70;99.90;;;;;;5035240;28;20589;-75
2021/06/23 04:12:45;;;;;;;3.08;2.35;;;18.60;99.90;;;;;;5035318;28;20682;-75
2021/06/23 04:15:14;;;;;;;3.28;2.70;;;18.70;99.90;;;;;;5036353;28;20230;-75
2021/06/23 04:17:41;;;;;;;2.90;2.42;;;18.70;99.90;;;;;;5036369;28;20958;-75
2021/06/23 04:20:10;;;;;;;3.13;2.53;;;18.70;99.90;;;;;;5035287;28;20207;-75
2021/06/23 04:22:37;;;;;;;2.40;2.20;;;18.80;99.90;;;;;;5037688;28;20228;-76
2021/06/23 04:25:05;;;;;;;2.40;2.20;;;18.80;99.90;;;;;;5038368;28;20235;-75
2021/06/23 04:27:32;;;;;;;3.00;2.40;;;18.80;99.90;;;;;;5038861;28;20211;-76
2021/06/23 04:30:00;;;;;;;3.33;2.80;;;18.80;99.90;;;;;;5038217;28;20204;-75
2021/06/23 04:32:27;;;;;;;3.00;2.70;;;18.80;99.90;;;;;;5036839;28;20825;-75
2021/06/23 04:34:54;;;;;;;2.28;2.08;;;18.80;99.90;;;;;;5036271;28;20220;-75
2021/06/23 04:37:21;;;;;;;2.28;2.13;;;18.80;99.90;;;;;;5034841;28;20290;-75
2021/06/23 04:39:48;;;;;;;2.28;2.08;;;18.90;99.90;;;;;;5034414;28;20292;-75
2021/06/23 04:42:14;;;;;;;2.57;2.37;;;19.00;99.90;;;;;;5034338;28;20204;-75
2021/06/23 04:44:41;;;;;;;2.70;2.50;;;19.00;99.90;;;;;;5034760;28;20550;-75
2021/06/23 04:47:10;;;;;;;3.40;2.03;;;19.00;99.90;;;;;;5034379;28;20567;-75
2021/06/23 04:49:36;;;;;;;2.33;2.08;;;19.00;99.90;;;;;;5034485;28;20296;-75
2021/06/23 04:52:04;;;;;;;1.95;1.60;;;19.00;99.90;;;;;;5034607;28;20234;-75
2021/06/23 04:54:31;;;;;;;2.15;2.05;;;19.00;99.90;;;;;;5034546;28;20649;-75
2021/06/23 04:56:58;;;;;;;2.50;2.22;;;19.00;99.90;;;;;;5034854;28;20299;-75
2021/06/23 04:59:24;;;;;;;2.92;2.10;;;19.00;99.90;;;;;;5034503;28;20310;-75
2021/06/23 05:01:51;;;;;;;3.87;2.43;;;19.00;99.90;;;;;;5034308;28;20208;-75
2021/06/23 05:04:19;;;;;;;3.20;2.30;;;19.10;99.90;;;;;;5034316;28;20535;-75
2021/06/23 05:06:46;;;;;;;2.50;2.30;;;19.10;99.90;;;;;;5034951;28;20215;-75
2021/06/23 05:09:13;;;;;;;2.00;1.90;;;19.10;99.90;;;;;;5035911;28;20366;-75
2021/06/23 05:11:41;;;;;;;2.17;1.90;;;19.10;99.90;;;;;;5034084;28;20489;-75
2021/06/23 05:14:09;;;;;;;2.83;2.00;;;19.20;99.90;;;;;;5034845;28;20454;-75
2021/06/23 05:16:37;;;;;;;2.28;2.08;;;19.10;99.90;;;;;;5034019;28;20542;-75
2021/06/23 05:19:04;;;;;;;5.30;1.73;;;19.10;99.90;;;;;;5034407;28;20204;-75
2021/06/23 05:21:34;;;;;;;2.08;1.98;;;19.10;99.90;;;;;;5034796;28;20443;-75
2021/06/23 05:24:02;;;;;;;2.20;2.00;;;19.00;99.90;;;;;;5035203;28;20208;-75
2021/06/23 05:26:29;;;;;;;2.70;2.08;;;19.00;99.90;;;;;;5034847;28;20813;-75
2021/06/23 05:28:56;;;;;;;2.92;2.63;;;18.90;99.90;;;;;;5035789;28;20295;-75
2021/06/23 05:31:23;;;;;;;2.20;2.00;;;18.90;99.90;;;;;;5035592;28;20236;-75
2021/06/23 05:33:50;;;;;;;2.50;2.30;;;18.90;99.90;;;;;;5036937;28;20204;-75
2021/06/23 05:36:16;;;;;;;2.73;2.13;;;19.00;99.90;;;;;;5037676;28;20228;-75
2021/06/23 05:38:45;;;;;;;1.88;1.77;;;19.00;99.90;;;;;;5035573;28;20453;-75
2021/06/23 05:41:12;;;;;;;2.42;2.20;;;19.00;99.90;;;;;;5034332;28;20201;-75
2021/06/23 05:43:38;;;;;;;3.20;2.50;;;19.10;99.90;;;;;;5034155;28;20204;-75
2021/06/23 05:46:05;;;;;;;2.60;2.40;;;19.30;99.90;;;;;;5034539;28;20307;-75
2021/06/23 05:48:32;;;;;;;2.85;2.55;;;19.40;99.90;;;;;;5035135;28;20605;-75
2021/06/23 05:50:59;;;;;;;3.80;2.85;;;19.40;99.90;;;;;;5034179;28;20312;-75
2021/06/23 05:53:26;;;;;;;3.10;2.53;;;19.50;99.90;;;;;;5038298;28;20308;-75
2021/06/23 05:55:55;;;;;;;3.23;2.37;;;19.50;99.90;;;;;;5038304;28;20507;-75
2021/06/23 05:58:22;;;;;;;4.20;2.43;;;19.50;99.90;;;;;;5039323;28;20455;-75
2021/06/23 06:00:49;;;;;;;2.53;2.20;;;19.50;99.90;;;;;;5039492;28;20539;-75
2021/06/23 06:03:16;;;;;;;2.35;2.15;;;19.50;99.90;;;;;;5039740;28;20482;-75
2021/06/23 06:05:42;;;;;;;2.97;2.43;;;19.50;99.90;;;;;;5038178;28;20263;-75
2021/06/23 06:08:09;;;;;;;3.30;1.97;;;19.50;99.90;;;;;;5038579;28;20445;-75
2021/06/23 06:10:36;;;;;;;2.35;2.15;;;19.40;99.90;;;;;;5038378;28;20526;-75
2021/06/23 06:13:05;;;;;;;2.23;2.03;;;19.40;99.90;;;;;;5038595;28;20299;-75
2021/06/23 06:15:33;;;;;;;2.30;2.10;;;19.30;99.90;;;;;;5038023;28;20554;-75
2021/06/23 06:18:03;;;;;;;2.58;2.38;;;19.40;99.90;;;;;;5038756;28;20208;-75
2021/06/23 06:20:30;;;;;;;2.83;2.10;;;19.40;99.90;;;;;;5038143;28;20265;-75
2021/06/23 06:22:57;;;;;;;2.60;2.00;;;19.30;99.90;;;;;;5038142;28;20445;-75
2021/06/23 06:25:24;;;;;;;1.63;1.53;;;19.40;99.90;;;;;;5038218;28;20315;-75
2021/06/23 06:27:50;;;;;;;2.13;2.03;;;19.50;99.90;;;;;;5037623;28;20536;-76
2021/06/23 06:30:21;;;;;;;3.33;2.20;;;19.60;99.90;;;;;;5037383;28;20806;-76
2021/06/23 06:32:48;;;;;;;2.10;2.00;;;19.70;99.90;;;;;;5037413;28;20490;-76
2021/06/23 06:35:16;;;;;;;1.80;1.70;;;19.80;99.90;;;;;;5037719;28;20475;-75
2021/06/23 06:37:42;;;;;;;1.67;1.57;;;19.90;99.90;;;;;;5037440;28;20556;-75
2021/06/23 06:40:10;;;;;;;1.70;1.60;;;20.00;99.90;;;;;;5037013;28;20497;-75
2021/06/23 06:42:37;;;;;;;1.77;1.67;;;20.10;99.90;;;;;;5038020;28;20516;-76
2021/06/23 06:45:06;;;;;;;1.83;1.37;;;20.20;99.90;;;;;;5037206;28;20478;-76
2021/06/23 06:47:34;;;;;;;1.63;1.53;;;20.20;99.90;;;;;;5037740;28;20455;-75
2021/06/23 06:50:01;;;;;;;1.57;1.47;;;20.30;99.90;;;;;;5036788;28;20531;-75
2021/06/23 06:52:28;;;;;;;1.53;1.43;;;20.40;99.90;;;;;;5037297;28;20580;-76
2021/06/23 06:54:55;;;;;;;2.00;1.77;;;20.40;99.90;;;;;;5036946;28;20563;-75
2021/06/23 06:57:22;;;;;;;1.80;1.70;;;20.50;99.90;;;;;;5037467;28;20445;-75
2021/06/23 06:59:49;;;;;;;1.53;1.43;;;20.60;99.90;;;;;;5037084;28;20438;-74
2021/06/23 07:02:16;;;;;;;2.17;1.40;;;20.90;99.90;;;;;;5036462;28;21002;-75
2021/06/23 07:04:44;;;;;;;2.03;1.57;;;21.00;99.90;;;;;;5036915;28;20476;-75
2021/06/23 07:07:11;;;;;;;1.53;1.43;;;21.20;99.90;;;;;;5037164;28;20450;-75
2021/06/23 07:09:38;;;;;;;1.70;1.60;;;21.40;99.90;;;;;;5037075;28;20450;-76
2021/06/23 07:12:05;;;;;;;1.50;1.40;;;21.70;99.90;;;;;;5037543;28;20518;-75
2021/06/23 07:14:32;;;;;;;2.13;1.73;;;21.90;99.90;;;;;;5037162;28;20473;-76
2021/06/23 07:16:59;;;;;;;1.40;1.30;;;22.20;99.90;;;;;;5037287;28;20844;-76
2021/06/23 07:19:25;;;;;;;1.60;1.50;;;22.20;99.90;;;;;;5037633;28;20506;-76
2021/06/23 07:21:54;;;;;;;1.40;1.30;;;22.40;99.90;;;;;;5029132;28;20527;-76
2021/06/23 07:24:21;;;;;;;1.43;1.33;;;22.60;99.90;;;;;;5044334;28;20446;-76
2021/06/23 07:26:52;;;;;;;1.80;1.63;;;22.60;99.90;;;;;;5036601;28;20948;-76
2021/06/23 07:29:19;;;;;;;1.70;1.47;;;22.50;99.90;;;;;;5036623;28;21057;-76
2021/06/23 07:31:53;;;;;;;1.80;1.70;;;22.50;99.90;;;;;;5035886;28;21018;-76
2021/06/23 07:34:35;;;;;;;1.80;1.70;;;22.50;99.90;;;;;;5036487;28;20447;-76
2021/06/23 07:37:04;;;;;;;1.37;1.27;;;22.50;99.90;;;;;;5036416;28;20458;-76
2021/06/23 07:39:32;;;;;;;1.63;1.53;;;22.60;99.90;;;;;;5035954;28;20455;-76
2021/06/23 07:42:00;;;;;;;2.80;1.87;;;22.50;99.90;;;;;;5036205;28;20443;-76
2021/06/23 07:44:30;;;;;;;2.00;1.57;;;22.40;99.90;;;;;;5035540;28;20471;-76
2021/06/23 07:46:59;;;;;;;2.30;1.53;;;22.50;99.90;;;;;;5035470;28;20541;-76
2021/06/23 07:49:29;;;;;;;5.20;1.73;;;22.90;99.90;;;;;;5035589;28;20471;-76
2021/06/23 07:51:59;;;;;;;1.60;1.50;;;23.20;99.90;;;;;;5035056;28;20517;-76
2021/06/23 07:54:43;;;;;;;1.77;1.67;;;23.30;99.90;;;;;;5035681;28;20956;-76
2021/06/23 08:03:02;;;;;;;1.67;1.57;;;25.20;99.90;;;;;;5037036;28;20939;-76
2021/06/23 08:08:23;;;;;;;2.13;1.80;;;25.40;99.90;;;;;;5035489;28;20517;-74
2021/06/23 08:10:53;;;;;;;2.30;1.80;;;25.30;99.90;;;;;;5033531;28;20454;-75
2021/06/23 08:13:20;;;;;;;2.37;2.17;;;25.30;99.90;;;;;;5033496;28;20486;-75
2021/06/23 08:15:49;;;;;;;2.27;1.90;;;25.50;99.90;;;;;;5032478;28;20478;-75
2021/06/23 08:18:20;;;;;;;2.10;1.60;;;25.80;99.90;;;;;;5033472;28;20530;-75
2021/06/23 08:20:47;;;;;;;1.77;1.67;;;25.90;99.90;;;;;;5033299;28;20483;-74
2021/06/23 08:23:14;;;;;;;2.00;1.90;;;26.30;99.90;;;;;;5034093;28;21020;-74
2021/06/23 08:25:41;;;;;;;4.57;1.87;;;26.90;99.90;;;;;;5034741;28;20634;-73
2021/06/23 08:28:09;;;;;;;2.60;2.23;;;27.00;98.70;;;;;;5034774;28;20447;-74
2021/06/23 08:30:36;;;;;;;1.93;1.77;;;26.80;99.00;;;;;;5034911;28;20546;-75
2021/06/23 08:33:03;;;;;;;1.87;1.77;;;26.70;98.80;;;;;;5034819;28;20475;-74
2021/06/23 08:35:30;;;;;;;1.67;1.57;;;26.70;98.40;;;;;;5034479;28;20471;-74
2021/06/23 08:37:57;;;;;;;2.40;2.20;;;27.10;98.30;;;;;;5035238;28;20545;-74
2021/06/23 08:40:24;;;;;;;2.37;2.17;;;27.60;97.20;;;;;;5034502;28;20446;-75
2021/06/23 08:42:51;;;;;;;2.30;2.10;;;28.10;95.10;;;;;;5034540;28;20448;-74
2021/06/23 08:45:20;;;;;;;2.13;2.00;;;28.70;92.80;;;;;;5034430;28;20473;-74
2021/06/23 08:47:49;;;;;;;2.30;2.10;;;28.80;92.70;;;;;;5034365;28;20453;-74
2021/06/23 08:50:17;;;;;;;2.33;2.13;;;29.20;91.10;;;;;;5034467;28;20528;-74
2021/06/23 08:52:44;;;;;;;1.70;1.60;;;29.80;89.80;;;;;;5034278;28;20486;-74
2021/06/23 08:55:12;;;;;;;2.00;1.90;;;30.30;83.60;;;;;;5034324;28;20504;-74
2021/06/23 08:57:39;;;;;;;1.90;1.80;;;30.50;80.60;;;;;;5034440;28;20844;-74
2021/06/23 09:00:07;;;;;;;1.63;1.53;;;31.40;76.40;;;;;;5034297;28;20534;-75
2021/06/23 09:02:36;;;;;;;2.20;2.10;;;32.00;69.80;;;;;;5034456;28;20445;-74
2021/06/23 09:05:06;;;;;;;1.60;1.50;;;32.30;69.50;;;;;;5034427;28;20509;-75
2021/06/23 09:07:38;;;;;;;1.60;1.50;;;33.80;65.20;;;;;;5034253;28;20483;-75
2021/06/23 09:10:07;;;;;;;1.70;1.60;;;35.00;60.80;;;;;;5033722;28;20550;-74
2021/06/23 09:12:34;;;;;;;1.60;1.50;;;36.30;54.70;;;;;;5034185;28;20486;-75
2021/06/23 09:15:02;;;;;;;1.47;1.37;;;36.70;51.40;;;;;;5033985;28;20466;-75
2021/06/23 09:17:29;;;;;;;1.63;1.63;;;35.20;53.80;;;;;;5034538;28;20453;-74
2021/06/23 09:19:59;;;;;;;1.80;1.70;;;33.70;56.20;;;;;;5033854;28;20526;-74
2021/06/23 09:22:40;;;;;;;1.33;1.30;;;32.70;63.50;;;;;;5034039;28;20525;-75
2021/06/23 09:25:26;;;;;;;1.60;1.50;;;33.20;58.10;;;;;;5033684;28;20532;-75
2021/06/23 09:27:55;;;;;;;1.73;1.47;;;34.30;55.30;;;;;;5034599;28;20431;-75
2021/06/23 09:30:34;;;;;;;1.40;1.40;;;34.20;55.50;;;;;;5033559;28;20443;-75
2021/06/23 09:33:10;;;;;;;1.13;1.13;;;34.10;52.70;;;;;;5033698;28;20478;-75
2021/06/23 09:35:39;;;;;;;1.40;1.30;;;34.90;50.30;;;;;;5033971;28;20561;-75
2021/06/23 09:38:06;;;;;;;1.40;1.40;;;35.90;51.00;;;;;;5034010;28;20925;-75
2021/06/23 09:40:42;;;;;;;1.27;1.17;;;36.10;48.00;;;;;;5033732;28;20449;-75
2021/06/23 09:43:10;;;;;;;1.30;1.30;;;36.70;47.10;;;;;;5033737;28;20500;-75
2021/06/23 09:45:37;;;;;;;1.40;1.40;;;37.90;46.70;;;;;;5033975;28;20470;-75
2021/06/23 09:48:07;;;;;;;1.10;1.10;;;37.90;43.70;;;;;;5033809;28;20446;-75
2021/06/23 09:50:36;;;;;;;1.60;1.50;;;38.30;46.20;;;;;;5033480;28;20454;-75
2021/06/23 09:53:08;;;;;;;1.00;1.00;;;38.60;42.60;;;;;;5033786;28;20961;-75
2021/06/23 09:55:39;;;;;;;1.20;1.10;;;39.50;40.20;;;;;;5033622;28;20471;-75
2021/06/23 09:58:14;;;;;;;1.57;1.50;;;38.70;43.10;;;;;;5033605;28;20481;-75
2021/06/23 10:01:01;;;;;;;1.20;1.20;;;39.00;43.60;;;;;;5033212;28;20457;-75
2021/06/23 10:03:30;;;;;;;1.50;1.40;;;38.70;39.80;;;;;;5033762;28;20443;-75
2021/06/23 10:05:57;;;;;;;1.17;1.17;;;38.50;40.50;;;;;;5033140;28;20479;-75
2021/06/23 10:08:27;;;;;;;1.00;1.00;;;38.80;41.10;;;;;;5033503;28;20446;-76
2021/06/23 10:10:55;;;;;;;1.50;1.43;;;39.80;39.50;;;;;;5032993;28;20925;-75
2021/06/23 10:13:22;;;;;;;1.10;1.00;;;40.90;37.00;;;;;;5033615;28;20479;-75
2021/06/23 10:15:49;;;;;;;3.63;1.10;;;40.90;37.10;;;;;;5033649;28;20474;-75
2021/06/23 10:18:18;;;;;;;1.20;1.20;;;41.00;35.90;;;;;;5033489;28;20453;-76
2021/06/23 10:20:46;;;;;;;1.27;1.17;;;40.90;36.10;;;;;;5033511;28;20529;-76
2021/06/23 10:23:13;;;;;;;1.00;1.00;;;41.20;35.10;;;;;;5033482;28;20449;-76
2021/06/23 10:25:42;;;;;;;1.10;1.10;;;40.50;37.20;;;;;;5032859;28;20549;-75
2021/06/23 10:28:11;;;;;;;0.90;0.90;;;39.40;37.40;;;;;;5033115;28;20538;-76
2021/06/23 10:30:38;;;;;;;1.40;1.30;;;39.00;38.60;;;;;;5032742;28;20454;-76
2021/06/23 10:33:06;;;;;;;0.90;0.90;;;38.60;39.30;;;;;;5033574;28;20822;-76
2021/06/23 10:35:33;;;;;;;0.93;0.93;;;37.60;40.90;;;;;;5033019;28;20466;-75
2021/06/23 10:38:02;;;;;;;1.00;1.00;;;36.10;40.60;;;;;;5034369;28;20537;-75
2021/06/23 10:40:30;;;;;;;1.00;1.00;;;34.60;45.40;;;;;;5036485;28;20530;-75
2021/06/23 10:43:11;;;;;;;0.87;0.87;;;33.70;47.60;;;;;;5037165;28;20451;-75
2021/06/23 10:45:42;;;;;;;1.00;1.00;;;33.30;48.10;;;;;;5036576;28;20562;-75
2021/06/23 10:48:09;;;;;;;1.20;1.20;;;32.70;48.60;;;;;;5036783;28;20558;-75
2021/06/23 10:50:36;;;;;;;1.10;1.10;;;32.30;51.10;;;;;;5036577;28;20507;-75
2021/06/23 10:53:24;;;;;;;1.10;1.00;;;31.90;50.50;;;;;;5036654;28;20571;-75
2021/06/23 10:55:51;;;;;;;0.90;0.90;;;31.50;52.00;;;;;;5036145;28;20817;-75
2021/06/23 10:58:27;;;;;;;0.97;0.97;;;31.00;52.80;;;;;;5036505;28;20443;-75
2021/06/23 11:01:06;;;;;;;1.20;1.10;;;30.50;56.30;;;;;;5036236;28;20809;-75
2021/06/23 11:04:02;;;;;;;0.97;0.97;;;30.00;57.10;;;;;;5036680;28;20442;-75
2021/06/23 11:06:39;;;;;;;1.10;1.10;;;29.60;57.30;;;;;;5036132;28;20481;-75
2021/06/23 11:09:23;;;;;;;1.27;1.13;;;28.70;58.90;;;;;;5036405;28;20446;-74
2021/06/23 11:11:50;;;;;;;1.23;1.13;;;28.00;62.20;;;;;;5036270;28;21005;-74
2021/06/23 11:14:20;;;;;;;1.30;1.20;;;27.70;63.60;;;;;;5036232;28;20478;-74
2021/06/23 11:16:47;;;;;;;1.10;1.10;;;27.30;63.60;;;;;;5035861;28;20446;-74
2021/06/23 11:19:14;;;;;;;0.93;0.93;;;26.90;67.70;;;;;;5036141;28;20465;-74
2021/06/23 11:21:45;;;;;;;0.83;0.83;;;26.60;67.90;;;;;;5036055;28;20470;-74
2021/06/23 11:24:16;;;;;;;0.90;0.90;;;26.50;68.10;;;;;;5036201;28;20439;-74
2021/06/23 11:26:58;;;;;;;1.00;1.00;;;26.30;71.20;;;;;;5036421;28;20476;-74
2021/06/23 11:29:37;;;;;;;0.93;0.93;;;26.30;72.50;;;;;;5036090;28;20447;-74
2021/06/23 11:32:14;;;;;;;1.10;1.10;;;25.90;72.20;;;;;;5035615;28;20541;-74
2021/06/23 11:34:55;;;;;;;0.97;0.97;;;26.00;73.00;;;;;;5035792;28;20827;-74
2021/06/23 11:37:24;;;;;;;1.40;1.30;;;26.40;75.50;;;;;;5035530;28;20477;-74
2021/06/23 11:39:51;;;;;;;1.07;1.03;;;26.70;71.90;;;;;;5035513;28;20454;-73
2021/06/23 11:42:19;;;;;;;0.87;0.80;;;26.70;74.50;;;;;;5035740;28;20453;-74
2021/06/23 11:44:47;;;;;;;1.27;1.17;;;26.70;73.60;;;;;;5035674;28;20481;-74
2021/06/23 11:47:15;;;;;;;1.20;0.90;;;27.00;73.40;;;;;;5036113;28;20451;-74
2021/06/23 11:49:42;;;;;;;1.30;1.20;;;27.30;75.20;;;;;;5034138;28;20461;-74
2021/06/23 11:52:10;;;;;;;1.10;1.00;;;27.70;72.00;;;;;;5035197;28;20450;-74
2021/06/23 11:54:37;;;;;;;0.90;0.90;;;27.70;68.50;;;;;;5035223;28;20554;-74
2021/06/23 11:57:05;;;;;;;0.90;0.90;;;28.00;72.60;;;;;;5035727;28;20444;-74
2021/06/23 11:59:32;;;;;;;0.87;0.87;;;28.30;69.40;;;;;;5035120;28;20527;-74
2021/06/23 12:02:01;;;;;;;1.10;1.10;;;28.40;69.20;;;;;;5034818;28;21017;-74
2021/06/23 12:04:29;;;;;;;1.20;1.10;;;28.30;66.30;;;;;;5034987;28;20518;-74
2021/06/23 12:06:56;;;;;;;0.80;0.80;;;28.00;67.20;;;;;;5035048;28;20451;-74
2021/06/23 12:09:22;;;;;;;0.80;0.80;;;27.70;66.90;;;;;;5035080;28;20540;-74
2021/06/23 12:11:49;;;;;;;2.60;1.10;;;27.50;67.60;;;;;;5034966;28;20954;-74
2021/06/23 12:14:16;;;;;;;1.00;1.00;;;27.20;67.20;;;;;;5035107;28;20492;-74
2021/06/23 12:16:44;;;;;;;1.13;1.03;;;27.00;70.20;;;;;;5035555;28;20482;-74
2021/06/23 12:19:12;;;;;;;1.67;1.50;;;27.20;70.80;;;;;;5034902;28;20449;-74
2021/06/23 12:21:39;;;;;;;1.07;1.07;;;27.50;69.50;;;;;;5034749;28;20446;-74
2021/06/23 12:24:06;;;;;;;1.07;1.00;;;27.70;64.30;;;;;;5035018;28;20526;-74
2021/06/23 12:26:33;;;;;;;1.23;0.93;;;27.70;67.40;;;;;;5035174;28;20553;-74
2021/06/23 12:29:00;;;;;;;1.30;1.20;;;27.80;67.60;;;;;;5035019;28;20529;-74
2021/06/23 12:31:27;;;;;;;1.17;1.10;;;27.70;66.40;;;;;;5034032;28;20853;-75
2021/06/23 12:33:54;;;;;;;0.80;0.80;;;27.60;69.50;;;;;;5034518;28;20566;-74
2021/06/23 12:36:22;;;;;;;0.73;0.73;;;27.80;63.30;;;;;;5034412;28;20467;-74
2021/06/23 12:38:49;;;;;;;0.80;0.80;;;27.90;63.90;;;;;;5034903;28;20448;-74
2021/06/23 12:41:15;;;;;;;0.70;0.70;;;28.10;64.50;;;;;;5034621;28;20544;-74
2021/06/23 12:43:42;;;;;;;0.83;0.83;;;28.30;60.00;;;;;;5034780;28;20841;-74
2021/06/23 12:46:10;;;;;;;0.77;0.77;;;28.30;61.00;;;;;;5034422;28;20555;-74
2021/06/23 12:48:38;;;;;;;0.60;0.60;;;28.50;61.00;;;;;;5034225;28;20466;-74
2021/06/23 12:51:07;;;;;;;0.90;0.90;;;28.80;59.10;;;;;;5033955;28;20528;-74
2021/06/23 12:53:35;;;;;;;0.67;0.67;;;28.90;61.10;;;;;;5034461;28;20482;-74
2021/06/23 12:56:02;;;;;;;0.90;0.77;;;29.00;57.40;;;;;;5033825;28;20477;-74
2021/06/23 12:58:29;;;;;;;0.70;0.70;;;28.80;57.40;;;;;;5034771;28;20499;-74
2021/06/23 13:00:56;;;;;;;0.70;0.70;;;28.80;59.10;;;;;;5033504;28;20488;-75
2021/06/23 13:03:23;;;;;;;0.73;0.70;;;28.90;58.70;;;;;;5034195;28;20445;-74
2021/06/23 13:05:49;;;;;;;1.00;1.00;;;28.80;60.00;;;;;;5033904;28;20482;-74